Time;durP1;ratioP1;P1;durP2;ratioP2;P2;SDS_P1;SDS_P2;PMS_P1;PMS_P2;Temp;Humidity;BMP_temperature;BMP_pressure;BME280_temperature;BME280_humidity;BME280_pressure;Samples;Min_cycle;Max_cycle;Signal;HPM_P1;HPM_P2
2023/12/06 00:02:18;;;;;;;;;;;19.10;59.30;;;;;;5040053;28;1468;-70
2023/12/06 00:04:44;;;;;;;;;;;19.10;59.30;;;;;;5039493;28;1525;-69
2023/12/06 00:07:10;;;;;;;;;;;19.10;59.30;;;;;;5036956;28;1977;-70
2023/12/06 00:09:35;;;;;;;;;;;19.10;59.40;;;;;;5034879;28;1742;-69
2023/12/06 00:12:01;;;;;;;;;;;19.10;59.30;;;;;;5070344;28;1346;-70
2023/12/06 00:14:26;;;;;;;;;;;19.10;59.40;;;;;;5039561;28;1355;-69
2023/12/06 00:16:52;;;;;;;;;;;19.10;59.40;;;;;;5037156;28;1383;-70
2023/12/06 00:19:17;;;;;;;;;;;19.10;59.40;;;;;;5039327;28;1022;-70
2023/12/06 00:21:42;;;;;;;;;;;19.10;59.40;;;;;;5040809;28;1011;-70
2023/12/06 00:24:08;;;;;;;;;;;19.10;59.40;;;;;;5042774;28;1261;-70
2023/12/06 00:26:34;;;;;;;;;;;19.10;59.40;;;;;;5045930;28;1902;-69
2023/12/06 00:28:59;;;;;;;;;;;19.10;59.40;;;;;;5036399;28;1253;-70
2023/12/06 00:31:25;;;;;;;;;;;19.10;59.40;;;;;;5037498;28;1332;-70
2023/12/06 00:33:50;;;;;;;;;;;19.10;59.40;;;;;;5038185;28;1528;-70
2023/12/06 00:36:16;;;;;;;;;;;19.10;59.40;;;;;;5037104;28;1359;-70
2023/12/06 00:38:41;;;;;;;;;;;19.10;59.50;;;;;;5034953;28;1372;-71
2023/12/06 00:41:07;;;;;;;;;;;19.10;59.40;;;;;;5037668;28;1361;-71
2023/12/06 00:43:32;;;;;;;;;;;19.10;59.50;;;;;;5037754;28;1260;-70
2023/12/06 00:45:58;;;;;;;;;;;19.10;59.40;;;;;;5038740;28;1969;-70
2023/12/06 00:48:23;;;;;;;;;;;19.10;59.50;;;;;;5036931;28;1465;-70
2023/12/06 00:50:49;;;;;;;;;;;19.10;59.50;;;;;;5036233;28;1379;-70
2023/12/06 00:53:14;;;;;;;;;;;19.10;59.50;;;;;;5038514;28;1322;-70
2023/12/06 00:55:40;;;;;;;;;;;19.10;59.50;;;;;;5038326;28;1677;-70
2023/12/06 00:58:05;;;;;;;;;;;19.10;59.50;;;;;;5038616;28;1400;-70
2023/12/06 01:00:30;;;;;;;;;;;19.10;59.50;;;;;;5020696;28;1413;-70
2023/12/06 01:02:56;;;;;;;;;;;19.10;59.50;;;;;;5038285;28;1420;-70
2023/12/06 01:05:21;;;;;;;;;;;19.10;59.50;;;;;;5044033;28;1258;-70
2023/12/06 01:07:47;;;;;;;;;;;19.10;59.50;;;;;;5035620;28;1937;-70
2023/12/06 01:10:12;;;;;;;;;;;19.10;59.50;;;;;;5036777;28;1374;-70
2023/12/06 01:12:38;;;;;;;;;;;19.10;59.50;;;;;;5036782;28;1527;-70
2023/12/06 01:15:04;;;;;;;;;;;19.00;59.50;;;;;;5038040;28;1535;-70
2023/12/06 01:17:32;;;;;;;;;;;19.00;59.50;;;;;;5036151;28;1383;-70
2023/12/06 01:19:58;;;;;;;;;;;19.00;59.50;;;;;;5034825;28;1451;-70
2023/12/06 01:22:23;;;;;;;;;;;19.00;59.50;;;;;;5038647;28;1591;-70
2023/12/06 01:24:49;;;;;;;;;;;19.00;59.50;;;;;;5035301;28;1474;-70
2023/12/06 01:27:14;;;;;;;;;;;19.00;59.50;;;;;;5037034;28;1993;-70
2023/12/06 01:29:40;;;;;;;;;;;19.00;59.60;;;;;;5038709;28;1298;-70
2023/12/06 01:32:05;;;;;;;;;;;19.00;59.50;;;;;;5037653;28;1224;-70
2023/12/06 01:34:31;;;;;;;;;;;19.00;59.60;;;;;;5038161;28;1465;-70
2023/12/06 01:36:56;;;;;;;;;;;19.00;59.60;;;;;;5036690;28;1394;-70
2023/12/06 01:39:21;;;;;;;;;;;19.00;59.60;;;;;;5067829;28;1504;-70
2023/12/06 01:41:51;;;;;;;;;;;19.00;59.60;;;;;;5039541;28;1268;-70
2023/12/06 01:44:16;;;;;;;;;;;19.00;59.60;;;;;;5036784;28;1503;-70
2023/12/06 01:46:42;;;;;;;;;;;19.00;59.60;;;;;;5034223;28;1929;-70
2023/12/06 01:49:10;;;;;;;;;;;19.00;59.60;;;;;;5034979;28;1384;-70
2023/12/06 01:51:36;;;;;;;;;;;19.00;59.60;;;;;;5019885;28;1506;-70
2023/12/06 01:54:01;;;;;;;;;;;19.00;59.60;;;;;;5037041;28;1626;-70
2023/12/06 01:56:27;;;;;;;;;;;19.00;59.60;;;;;;5035914;28;1291;-71
2023/12/06 01:58:52;;;;;;;;;;;19.00;59.60;;;;;;5037348;28;1505;-70
2023/12/06 02:01:18;;;;;;;;;;;19.00;59.60;;;;;;5032710;28;1367;-70
2023/12/06 02:03:43;;;;;;;;;;;19.00;59.70;;;;;;5036838;28;1304;-71
2023/12/06 02:06:09;;;;;;;;;;;19.00;59.70;;;;;;5041153;28;1963;-70
2023/12/06 02:08:35;;;;;;;;;;;19.00;59.70;;;;;;5040340;28;1405;-69
2023/12/06 02:11:01;;;;;;;;;;;19.00;59.70;;;;;;5037138;28;1722;-70
2023/12/06 02:13:27;;;;;;;;;;;18.90;59.70;;;;;;5042180;28;1504;-70
2023/12/06 02:15:52;;;;;;;;;;;19.00;60.00;;;;;;5037135;28;1857;-70
2023/12/06 02:18:18;;;;;;;;;;;18.90;59.70;;;;;;5037618;28;1468;-70
2023/12/06 02:20:43;;;;;;;;;;;19.00;59.70;;;;;;5041950;28;1350;-70
2023/12/06 02:23:09;;;;;;;;;;;18.90;59.70;;;;;;5039153;28;1345;-70
2023/12/06 02:25:34;;;;;;;;;;;18.90;59.70;;;;;;5038472;28;1452;-70
2023/12/06 02:28:00;;;;;;;;;;;18.90;59.70;;;;;;5038392;28;1969;-70
2023/12/06 02:30:25;;;;;;;;;;;18.90;59.80;;;;;;5042775;28;1433;-70
2023/12/06 02:32:51;;;;;;;;;;;18.90;59.70;;;;;;5038444;28;1376;-69
2023/12/06 02:35:18;;;;;;;;;;;18.90;59.80;;;;;;5037952;28;2019;-70
2023/12/06 02:37:44;;;;;;;;;;;18.90;59.80;;;;;;5039314;28;1394;-70
2023/12/06 02:40:10;;;;;;;;;;;18.90;59.70;;;;;;5039740;28;1296;-70
2023/12/06 02:42:35;;;;;;;;;;;18.90;59.80;;;;;;5037541;28;1283;-70
2023/12/06 02:45:01;;;;;;;;;;;18.90;59.80;;;;;;5040664;28;1339;-69
2023/12/06 02:47:27;;;;;;;;;;;18.90;59.80;;;;;;5040657;28;1906;-70
2023/12/06 02:49:52;;;;;;;;;;;18.90;59.80;;;;;;5036995;28;1366;-70
2023/12/06 02:52:17;;;;;;;;;;;18.90;59.80;;;;;;5067922;28;1630;-69
2023/12/06 02:54:43;;;;;;;;;;;18.90;59.80;;;;;;5040643;28;1207;-69
2023/12/06 02:57:08;;;;;;;;;;;18.90;59.80;;;;;;5036818;28;1343;-69
2023/12/06 02:59:34;;;;;;;;;;;18.90;59.80;;;;;;5038631;28;1248;-70
2023/12/06 03:01:59;;;;;;;;;;;18.90;59.80;;;;;;5038955;28;1151;-70
2023/12/06 03:04:25;;;;;;;;;;;18.90;59.90;;;;;;5043413;28;1130;-70
2023/12/06 03:06:50;;;;;;;;;;;18.90;59.90;;;;;;5040841;28;1922;-70
2023/12/06 03:09:16;;;;;;;;;;;18.90;60.00;;;;;;5038544;28;1216;-69
2023/12/06 03:11:41;;;;;;;;;;;18.90;59.90;;;;;;5037925;28;1351;-69
2023/12/06 03:14:07;;;;;;;;;;;18.90;60.00;;;;;;5040260;28;1154;-69
2023/12/06 03:16:33;;;;;;;;;;;18.90;59.90;;;;;;5036851;28;1305;-70
2023/12/06 03:18:59;;;;;;;;;;;18.90;60.00;;;;;;5038574;28;1208;-69
2023/12/06 03:21:25;;;;;;;;;;;18.90;59.90;;;;;;5038712;28;1462;-69
2023/12/06 03:23:51;;;;;;;;;;;18.90;59.90;;;;;;5039014;28;1508;-69
2023/12/06 03:26:16;;;;;;;;;;;18.90;59.80;;;;;;5040574;28;1973;-69
2023/12/06 03:28:42;;;;;;;;;;;18.90;59.80;;;;;;5038698;28;1230;-69
2023/12/06 03:31:07;;;;;;;;;;;18.90;59.80;;;;;;5037225;28;1384;-69
2023/12/06 03:33:33;;;;;;;;;;;18.90;59.80;;;;;;5046915;28;1507;-69
2023/12/06 03:35:58;;;;;;;;;;;18.90;59.80;;;;;;5040614;28;1490;-69
2023/12/06 03:38:24;;;;;;;;;;;18.90;59.80;;;;;;5037703;28;1308;-69
2023/12/06 03:40:49;;;;;;;;;;;18.90;59.70;;;;;;5038150;28;1217;-70
2023/12/06 03:43:14;;;;;;;;;;;18.90;59.70;;;;;;5039883;28;1341;-69
2023/12/06 03:45:40;;;;;;;;;;;18.90;59.70;;;;;;5039279;28;1242;-70
2023/12/06 03:48:05;;;;;;;;;;;18.90;59.70;;;;;;5037327;28;1688;-69
2023/12/06 03:50:31;;;;;;;;;;;18.90;59.70;;;;;;5040078;28;1321;-70
2023/12/06 03:52:56;;;;;;;;;;;18.90;59.80;;;;;;5037780;28;1198;-69
2023/12/06 03:55:22;;;;;;;;;;;18.90;59.80;;;;;;5036561;28;1955;-69
2023/12/06 03:57:47;;;;;;;;;;;18.90;59.70;;;;;;5036242;28;1347;-69
2023/12/06 04:00:13;;;;;;;;;;;18.90;59.80;;;;;;5038194;28;1338;-69
2023/12/06 04:02:39;;;;;;;;;;;18.90;59.80;;;;;;5035797;28;1408;-70
2023/12/06 04:05:04;;;;;;;;;;;18.90;59.80;;;;;;5037312;28;1426;-69
2023/12/06 04:07:30;;;;;;;;;;;18.90;59.80;;;;;;5039098;28;1953;-70
2023/12/06 04:09:55;;;;;;;;;;;18.90;59.80;;;;;;5041189;28;1312;-69
2023/12/06 04:12:21;;;;;;;;;;;18.90;59.80;;;;;;5040285;28;1330;-68
2023/12/06 04:14:46;;;;;;;;;;;18.90;59.80;;;;;;5046912;28;1291;-70
2023/12/06 04:17:12;;;;;;;;;;;18.90;59.80;;;;;;5041799;28;1361;-69
2023/12/06 04:19:38;;;;;;;;;;;18.90;59.80;;;;;;5038709;28;1376;-71
2023/12/06 04:22:04;;;;;;;;;;;18.90;59.80;;;;;;5037993;28;1295;-69
2023/12/06 04:24:30;;;;;;;;;;;18.90;59.80;;;;;;5038930;28;1345;-71
2023/12/06 04:26:55;;;;;;;;;;;18.90;59.80;;;;;;5040840;28;1971;-69
2023/12/06 04:29:21;;;;;;;;;;;18.90;59.80;;;;;;5041436;28;1542;-71
2023/12/06 04:31:46;;;;;;;;;;;18.90;59.80;;;;;;5037517;28;1296;-72
2023/12/06 04:34:12;;;;;;;;;;;18.90;59.80;;;;;;5036171;28;1403;-70
2023/12/06 04:36:37;;;;;;;;;;;18.90;59.80;;;;;;5036447;28;1440;-70
2023/12/06 04:39:03;;;;;;;;;;;18.90;59.80;;;;;;5034806;28;1396;-71
2023/12/06 04:41:28;;;;;;;;;;;18.90;59.80;;;;;;5037200;28;1244;-70
2023/12/06 04:43:54;;;;;;;;;;;18.90;59.80;;;;;;5034982;28;1482;-70
2023/12/06 04:46:19;;;;;;;;;;;18.90;59.80;;;;;;5037001;28;1971;-71
2023/12/06 04:48:45;;;;;;;;;;;18.90;59.80;;;;;;5035333;28;1212;-71
2023/12/06 04:51:11;;;;;;;;;;;18.90;59.80;;;;;;5034995;28;1344;-70
2023/12/06 04:53:36;;;;;;;;;;;18.90;59.80;;;;;;5035367;28;1458;-71
2023/12/06 04:56:02;;;;;;;;;;;18.90;59.90;;;;;;5039701;28;1316;-70
2023/12/06 04:58:28;;;;;;;;;;;18.90;59.90;;;;;;5038164;28;1535;-71
2023/12/06 05:00:53;;;;;;;;;;;18.90;59.90;;;;;;5036225;28;1347;-70
2023/12/06 05:03:19;;;;;;;;;;;18.90;59.90;;;;;;5038244;28;1405;-70
2023/12/06 05:05:45;;;;;;;;;;;18.90;60.00;;;;;;5038409;28;1953;-70
2023/12/06 05:08:10;;;;;;;;;;;18.90;59.90;;;;;;5034361;28;1425;-70
2023/12/06 05:10:36;;;;;;;;;;;18.90;60.00;;;;;;5037796;28;1336;-70
2023/12/06 05:13:01;;;;;;;;;;;18.90;59.90;;;;;;5035307;28;1462;-70
2023/12/06 05:15:27;;;;;;;;;;;19.00;60.00;;;;;;5037493;28;1469;-70
2023/12/06 05:17:52;;;;;;;;;;;19.10;59.90;;;;;;5036497;28;1454;-70
2023/12/06 05:20:18;;;;;;;;;;;19.20;59.80;;;;;;5037175;28;1475;-70
2023/12/06 05:22:44;;;;;;;;;;;19.30;59.60;;;;;;5036736;28;953;-69
2023/12/06 05:25:09;;;;;;;;;;;19.50;59.30;;;;;;5037746;28;1489;-70
2023/12/06 05:27:34;;;;;;;;;;;19.60;59.00;;;;;;5050969;28;1883;-70
2023/12/06 05:30:00;;;;;;;;;;;19.80;58.70;;;;;;5035692;28;1272;-71
2023/12/06 05:32:25;;;;;;;;;;;19.90;58.30;;;;;;5069874;28;1890;-70
2023/12/06 05:34:51;;;;;;;;;;;20.10;58.10;;;;;;5045589;28;1381;-70
2023/12/06 05:37:16;;;;;;;;;;;20.30;57.80;;;;;;5034268;28;1480;-71
2023/12/06 05:39:42;;;;;;;;;;;20.40;57.60;;;;;;5040124;28;1244;-71
2023/12/06 05:42:07;;;;;;;;;;;20.50;57.30;;;;;;5039826;28;1496;-71
2023/12/06 05:44:33;;;;;;;;;;;20.60;57.10;;;;;;5042740;28;1323;-71
2023/12/06 05:46:58;;;;;;;;;;;20.70;56.80;;;;;;5039148;28;1902;-71
2023/12/06 05:49:24;;;;;;;;;;;20.80;56.60;;;;;;5039164;28;1388;-71
2023/12/06 05:51:49;;;;;;;;;;;20.90;56.30;;;;;;5041102;28;1224;-70
2023/12/06 05:54:15;;;;;;;;;;;21.00;56.10;;;;;;5039193;28;1166;-71
2023/12/06 05:56:40;;;;;;;;;;;21.10;56.00;;;;;;5038536;28;1566;-70
2023/12/06 05:59:06;;;;;;;;;;;21.10;55.80;;;;;;5040962;28;1523;-69
2023/12/06 06:01:31;;;;;;;;;;;21.20;55.60;;;;;;5045501;28;920;-69
2023/12/06 06:03:57;;;;;;;;;;;21.20;55.60;;;;;;5042477;28;1248;-70
2023/12/06 06:06:22;;;;;;;;;;;21.30;55.50;;;;;;5043236;28;1905;-71
2023/12/06 06:08:48;;;;;;;;;;;21.30;55.50;;;;;;5042835;28;948;-69
2023/12/06 06:11:14;;;;;;;;;;;21.20;55.40;;;;;;5043984;28;1247;-73
2023/12/06 06:13:39;;;;;;;;;;;21.30;55.40;;;;;;5026967;28;1458;-73
2023/12/06 06:16:06;;;;;;;;;;;21.30;55.50;;;;;;5038024;28;1562;-73
2023/12/06 06:18:31;;;;;;;;;;;21.30;55.50;;;;;;5040179;28;1497;-71
2023/12/06 06:20:58;;;;;;;;;;;21.30;55.50;;;;;;5040582;28;1545;-71
2023/12/06 06:23:23;;;;;;;;;;;21.30;55.50;;;;;;5041419;28;1159;-70
2023/12/06 06:25:48;;;;;;;;;;;21.30;55.50;;;;;;5041562;28;1969;-71
2023/12/06 06:28:15;;;;;;;;;;;21.30;55.50;;;;;;5039378;28;1387;-72
2023/12/06 06:30:40;;;;;;;;;;;21.20;56.00;;;;;;5040090;28;1377;-71
2023/12/06 06:33:06;;;;;;;;;;;21.20;55.50;;;;;;5043202;28;1311;-71
2023/12/06 06:35:31;;;;;;;;;;;21.20;55.50;;;;;;5041642;28;1303;-71
2023/12/06 06:37:56;;;;;;;;;;;21.10;55.50;;;;;;5040793;28;1362;-72
2023/12/06 06:40:22;;;;;;;;;;;21.20;55.60;;;;;;5040009;28;1355;-69
2023/12/06 06:42:48;;;;;;;;;;;21.10;55.60;;;;;;5040562;28;1417;-70
2023/12/06 06:45:13;;;;;;;;;;;21.10;55.60;;;;;;5042889;28;1486;-72
2023/12/06 06:47:38;;;;;;;;;;;21.10;55.70;;;;;;5038999;28;1979;-70
2023/12/06 06:50:04;;;;;;;;;;;21.10;55.80;;;;;;5040335;28;1641;-69
2023/12/06 06:52:30;;;;;;;;;;;21.10;55.80;;;;;;5041716;28;1361;-71
2023/12/06 06:54:56;;;;;;;;;;;21.00;55.80;;;;;;5039694;28;1408;-71
2023/12/06 06:57:22;;;;;;;;;;;21.00;55.90;;;;;;5043121;28;1418;-71
2023/12/06 06:59:47;;;;;;;;;;;21.00;55.90;;;;;;5039228;28;1525;-71
2023/12/06 07:02:13;;;;;;;;;;;21.00;56.00;;;;;;5039552;28;1474;-70
2023/12/06 07:04:38;;;;;;;;;;;20.90;56.00;;;;;;5041252;28;1467;-68
2023/12/06 07:07:04;;;;;;;;;;;20.90;56.10;;;;;;5041115;28;1906;-68
2023/12/06 07:09:29;;;;;;;;;;;20.90;56.10;;;;;;5042607;28;1558;-68
2023/12/06 07:11:55;;;;;;;;;;;20.90;56.20;;;;;;5042131;28;1372;-69
2023/12/06 07:14:21;;;;;;;;;;;20.80;56.20;;;;;;5073368;28;1306;-71
2023/12/06 07:16:46;;;;;;;;;;;20.80;56.30;;;;;;5069815;28;1292;-71
2023/12/06 07:19:12;;;;;;;;;;;20.80;56.40;;;;;;5041529;28;1298;-69
2023/12/06 07:21:38;;;;;;;;;;;20.70;56.40;;;;;;5038592;28;1368;-70
2023/12/06 07:24:04;;;;;;;;;;;20.70;56.50;;;;;;5029431;28;1509;-68
2023/12/06 07:26:29;;;;;;;;;;;20.70;56.50;;;;;;5037543;28;1973;-69
2023/12/06 07:28:54;;;;;;;;;;;20.60;56.60;;;;;;5033909;28;1487;-69
2023/12/06 07:31:20;;;;;;;;;;;20.70;56.70;;;;;;5037024;28;1189;-69
2023/12/06 07:33:47;;;;;;;;;;;20.60;56.70;;;;;;5033975;28;1495;-69
2023/12/06 07:36:13;;;;;;;;;;;20.60;56.80;;;;;;5038797;28;1394;-69
2023/12/06 07:38:39;;;;;;;;;;;20.60;56.80;;;;;;5036045;28;1504;-69
2023/12/06 07:41:04;;;;;;;;;;;20.50;56.90;;;;;;5038133;28;1138;-70
2023/12/06 07:43:30;;;;;;;;;;;20.50;56.90;;;;;;5034281;28;1211;-70
2023/12/06 07:45:55;;;;;;;;;;;20.50;57.00;;;;;;5034410;28;1975;-69
2023/12/06 07:48:21;;;;;;;;;;;20.50;57.00;;;;;;5034004;28;1228;-69
2023/12/06 07:50:47;;;;;;;;;;;20.40;57.10;;;;;;5037992;28;901;-69
2023/12/06 07:53:13;;;;;;;;;;;20.40;57.10;;;;;;5036956;28;1317;-70
2023/12/06 07:55:39;;;;;;;;;;;20.40;57.20;;;;;;5037425;28;1595;-70
2023/12/06 07:58:05;;;;;;;;;;;20.40;57.30;;;;;;5036912;28;1360;-69
2023/12/06 08:00:30;;;;;;;;;;;20.30;57.30;;;;;;5038357;28;1644;-70
2023/12/06 08:02:56;;;;;;;;;;;20.30;57.30;;;;;;5038553;28;1220;-68
2023/12/06 08:05:21;;;;;;;;;;;20.30;57.40;;;;;;5040015;28;1149;-68
2023/12/06 08:07:47;;;;;;;;;;;20.30;57.50;;;;;;5042053;28;1893;-69
2023/12/06 08:10:19;;;;;;;;;;;20.30;57.50;;;;;;5038034;28;1451;-68
2023/12/06 08:12:44;;;;;;;;;;;20.20;57.40;;;;;;5035839;28;1354;-68
2023/12/06 08:15:10;;;;;;;;;;;20.20;57.60;;;;;;5039666;28;1736;-69
2023/12/06 08:17:35;;;;;;;;;;;20.20;57.50;;;;;;5035359;28;1387;-70
2023/12/06 08:20:01;;;;;;;;;;;20.20;57.60;;;;;;5038519;28;1424;-72
2023/12/06 08:22:27;;;;;;;;;;;20.20;57.60;;;;;;5037210;28;1501;-69
2023/12/06 08:24:56;;;;;;;;;;;20.20;57.60;;;;;;5034010;28;1490;-69
2023/12/06 08:27:27;;;;;;;;;;;20.10;58.20;;;;;;5035745;28;1934;-70
2023/12/06 08:29:54;;;;;;;;;;;20.10;57.70;;;;;;5035903;28;1546;-70
2023/12/06 08:32:20;;;;;;;;;;;20.10;57.70;;;;;;5036300;28;1378;-71
2023/12/06 08:34:45;;;;;;;;;;;20.10;57.70;;;;;;5036737;28;1159;-70
2023/12/06 08:37:11;;;;;;;;;;;20.10;57.80;;;;;;5034290;28;1914;-70
2023/12/06 08:39:36;;;;;;;;;;;20.10;57.90;;;;;;5034707;28;1553;-70
2023/12/06 08:42:02;;;;;;;;;;;20.10;57.80;;;;;;5033602;28;1382;-70
2023/12/06 08:44:28;;;;;;;;;;;20.10;57.80;;;;;;5034519;28;1475;-70
2023/12/06 08:46:53;;;;;;;;;;;20.00;57.80;;;;;;5035413;28;1971;-71
2023/12/06 08:49:19;;;;;;;;;;;20.00;57.80;;;;;;5034870;28;1564;-70
2023/12/06 08:51:45;;;;;;;;;;;20.00;57.80;;;;;;5035356;28;1330;-71
2023/12/06 08:54:10;;;;;;;;;;;20.00;57.80;;;;;;5043775;28;1784;-70
2023/12/06 08:56:36;;;;;;;;;;;20.00;57.80;;;;;;5038147;28;1241;-70
2023/12/06 08:59:01;;;;;;;;;;;20.00;57.80;;;;;;5039656;28;1617;-70
2023/12/06 09:01:27;;;;;;;;;;;20.00;57.80;;;;;;5068633;28;1519;-70
2023/12/06 09:03:52;;;;;;;;;;;20.00;57.90;;;;;;5039409;28;1355;-71
2023/12/06 09:06:18;;;;;;;;;;;20.00;57.90;;;;;;5042490;28;1914;-70
2023/12/06 09:08:43;;;;;;;;;;;20.00;57.80;;;;;;5035654;28;1507;-71
2023/12/06 09:11:09;;;;;;;;;;;20.00;57.80;;;;;;5038988;28;1701;-71
2023/12/06 09:13:34;;;;;;;;;;;20.00;57.90;;;;;;5039170;28;1323;-71
2023/12/06 09:15:59;;;;;;;;;;;20.00;57.90;;;;;;5040653;28;1333;-72
2023/12/06 09:18:25;;;;;;;;;;;20.00;57.90;;;;;;5040497;28;1488;-71
2023/12/06 09:20:52;;;;;;;;;;;19.90;57.80;;;;;;5038979;28;1383;-71
2023/12/06 09:23:17;;;;;;;;;;;20.00;57.90;;;;;;5040728;28;1322;-70
2023/12/06 09:25:43;;;;;;;;;;;19.90;57.90;;;;;;5042039;28;1411;-71
2023/12/06 09:28:08;;;;;;;;;;;19.90;57.90;;;;;;5040551;28;1890;-72
2023/12/06 09:30:34;;;;;;;;;;;20.00;58.00;;;;;;5042479;28;1592;-72
2023/12/06 09:32:59;;;;;;;;;;;19.90;57.90;;;;;;5071647;28;1593;-70
2023/12/06 09:35:24;;;;;;;;;;;19.90;58.00;;;;;;5040791;28;1422;-71
2023/12/06 09:37:50;;;;;;;;;;;19.90;58.00;;;;;;5039993;28;1476;-70
2023/12/06 09:40:15;;;;;;;;;;;19.90;58.00;;;;;;5039706;28;1637;-69
2023/12/06 09:42:42;;;;;;;;;;;19.90;58.00;;;;;;5027470;28;1243;-70
2023/12/06 09:45:08;;;;;;;;;;;19.90;58.00;;;;;;5041890;28;1455;-69
2023/12/06 09:47:33;;;;;;;;;;;19.90;58.10;;;;;;5040224;28;1910;-70
2023/12/06 09:49:59;;;;;;;;;;;19.90;58.10;;;;;;5041204;28;1341;-70
2023/12/06 09:52:24;;;;;;;;;;;19.80;58.00;;;;;;5038553;28;1409;-70
2023/12/06 09:54:50;;;;;;;;;;;19.90;58.10;;;;;;5072864;28;1256;-70
2023/12/06 09:57:15;;;;;;;;;;;19.80;58.10;;;;;;5042644;28;1276;-69
2023/12/06 09:59:41;;;;;;;;;;;19.80;58.10;;;;;;5038986;28;1277;-71
2023/12/06 10:02:06;;;;;;;;;;;19.80;58.20;;;;;;5040964;28;1271;-70
2023/12/06 10:04:33;;;;;;;;;;;19.80;58.20;;;;;;5038180;28;1643;-70
2023/12/06 10:06:59;;;;;;;;;;;19.80;58.20;;;;;;5039528;28;1914;-70
2023/12/06 10:09:24;;;;;;;;;;;19.80;58.20;;;;;;5041270;28;1399;-70
2023/12/06 10:11:50;;;;;;;;;;;19.80;58.20;;;;;;5039842;28;1373;-70
2023/12/06 10:14:16;;;;;;;;;;;19.80;58.20;;;;;;5040896;28;1470;-71
2023/12/06 10:16:41;;;;;;;;;;;19.80;58.20;;;;;;5037067;28;1391;-70
2023/12/06 10:19:07;;;;;;;;;;;19.70;58.20;;;;;;5038561;28;1507;-70
2023/12/06 10:21:32;;;;;;;;;;;19.70;58.20;;;;;;5038463;28;1376;-71
2023/12/06 10:24:01;;;;;;;;;;;19.70;58.30;;;;;;5037328;28;1499;-70
2023/12/06 10:26:27;;;;;;;;;;;19.70;58.30;;;;;;5037432;28;1949;-70
2023/12/06 10:28:53;;;;;;;;;;;19.70;58.40;;;;;;5039301;28;1434;-69
2023/12/06 10:31:18;;;;;;;;;;;19.70;58.50;;;;;;5038291;28;1399;-71
2023/12/06 10:33:45;;;;;;;;;;;19.70;58.40;;;;;;5040563;28;1265;-71
2023/12/06 10:36:11;;;;;;;;;;;19.70;58.50;;;;;;5039508;28;1327;-69
2023/12/06 10:38:37;;;;;;;;;;;19.70;58.50;;;;;;5035811;28;1803;-70
2023/12/06 10:41:03;;;;;;;;;;;19.60;58.50;;;;;;5037230;28;1890;-70
2023/12/06 10:43:30;;;;;;;;;;;19.60;58.50;;;;;;5032906;28;1930;-70
2023/12/06 10:45:55;;;;;;;;;;;19.60;58.60;;;;;;5039441;28;1601;-70
2023/12/06 10:48:21;;;;;;;;;;;19.60;58.60;;;;;;5038643;28;1898;-70
2023/12/06 10:50:47;;;;;;;;;;;19.60;58.70;;;;;;5040345;28;1564;-70
2023/12/06 10:53:14;;;;;;;;;;;19.60;58.70;;;;;;5036725;28;1219;-70
2023/12/06 10:55:39;;;;;;;;;;;19.50;58.70;;;;;;5038331;28;1096;-70
2023/12/06 10:58:06;;;;;;;;;;;19.50;58.70;;;;;;5032688;28;1699;-70
2023/12/06 11:00:31;;;;;;;;;;;19.50;58.80;;;;;;5035155;28;1862;-70
2023/12/06 11:02:57;;;;;;;;;;;19.50;58.70;;;;;;5036274;28;1417;-70
2023/12/06 11:05:24;;;;;;;;;;;19.50;58.80;;;;;;5039882;28;1452;-70
2023/12/06 11:08:08;;;;;;;;;;;19.50;58.70;;;;;;5036602;28;2176;-70
2023/12/06 11:10:38;;;;;;;;;;;19.50;58.80;;;;;;5070990;28;1425;-70
2023/12/06 11:13:20;;;;;;;;;;;19.50;58.80;;;;;;5036792;28;1356;-70
2023/12/06 11:15:55;;;;;;;;;;;19.50;58.70;;;;;;5054256;28;1388;-70
2023/12/06 11:18:23;;;;;;;;;;;19.50;58.80;;;;;;5034225;28;1831;-70
2023/12/06 11:20:48;;;;;;;;;;;19.50;58.70;;;;;;5041500;28;1381;-70
2023/12/06 11:23:15;;;;;;;;;;;19.50;58.70;;;;;;5028983;28;1528;-70
2023/12/06 11:25:44;;;;;;;;;;;19.50;58.70;;;;;;5037292;28;1387;-70
2023/12/06 11:28:10;;;;;;;;;;;19.50;58.70;;;;;;5069752;28;1961;-70
2023/12/06 11:30:44;;;;;;;;;;;19.50;58.70;;;;;;5037715;28;1554;-70
2023/12/06 11:33:10;;;;;;;;;;;19.50;58.70;;;;;;5047096;28;1458;-70
2023/12/06 11:35:41;;;;;;;;;;;19.50;58.70;;;;;;5035975;28;1597;-70
2023/12/06 11:38:07;;;;;;;;;;;19.50;58.70;;;;;;5036273;28;1343;-69
2023/12/06 11:40:32;;;;;;;;;;;19.50;58.70;;;;;;5036279;28;1429;-70
2023/12/06 11:42:58;;;;;;;;;;;19.50;58.70;;;;;;5038218;28;1285;-70
2023/12/06 11:45:27;;;;;;;;;;;19.50;58.70;;;;;;5035512;28;1342;-70
2023/12/06 11:47:52;;;;;;;;;;;19.50;58.80;;;;;;5036556;28;1910;-70
2023/12/06 11:50:18;;;;;;;;;;;19.50;58.70;;;;;;5037319;28;2078;-70
2023/12/06 11:52:50;;;;;;;;;;;19.50;58.70;;;;;;5035628;28;1292;-70
2023/12/06 11:55:19;;;;;;;;;;;19.50;58.70;;;;;;5023805;28;4306;-70
2023/12/06 11:57:57;;;;;;;;;;;19.50;58.70;;;;;;5040453;28;3863;-71
2023/12/06 12:00:23;;;;;;;;;;;19.50;58.70;;;;;;5038012;28;935;-70
2023/12/06 12:02:49;;;;;;;;;;;19.50;58.70;;;;;;5038816;28;1433;-70
2023/12/06 12:05:14;;;;;;;;;;;19.50;58.70;;;;;;5035997;28;1313;-70
2023/12/06 12:07:40;;;;;;;;;;;19.50;58.70;;;;;;5036115;28;1898;-70
2023/12/06 12:10:07;;;;;;;;;;;19.50;58.70;;;;;;5036985;28;1306;-70
2023/12/06 12:12:36;;;;;;;;;;;19.50;58.70;;;;;;5024178;28;1339;-70
2023/12/06 12:15:02;;;;;;;;;;;19.50;58.70;;;;;;5020999;28;4055;-70
2023/12/06 12:17:29;;;;;;;;;;;19.50;58.70;;;;;;5037672;28;1630;-70
2023/12/06 12:19:55;;;;;;;;;;;19.50;58.70;;;;;;5039017;28;1649;-71
2023/12/06 12:22:20;;;;;;;;;;;19.50;58.70;;;;;;5036582;28;1198;-70
2023/12/06 12:24:46;;;;;;;;;;;19.50;58.70;;;;;;5034365;28;1301;-70
2023/12/06 12:27:11;;;;;;;;;;;19.50;58.70;;;;;;5026063;28;4035;-70
2023/12/06 12:29:37;;;;;;;;;;;19.50;58.70;;;;;;5034312;28;1529;-70
2023/12/06 12:32:03;;;;;;;;;;;19.50;58.60;;;;;;5037081;28;1673;-70
2023/12/06 12:34:28;;;;;;;;;;;19.50;58.60;;;;;;5037969;28;1553;-70
2023/12/06 12:36:54;;;;;;;;;;;19.50;58.50;;;;;;5033981;28;1387;-70
2023/12/06 12:39:20;;;;;;;;;;;19.50;58.50;;;;;;5038848;28;1623;-72
2023/12/06 12:41:45;;;;;;;;;;;19.60;58.50;;;;;;5039742;28;1715;-70
2023/12/06 12:44:11;;;;;;;;;;;19.60;58.50;;;;;;5039176;28;1673;-70
2023/12/06 12:46:36;;;;;;;;;;;19.60;58.40;;;;;;5040983;28;1973;-70
2023/12/06 12:49:03;;;;;;;;;;;19.60;58.40;;;;;;5040196;28;1463;-69
2023/12/06 12:51:31;;;;;;;;;;;19.60;58.30;;;;;;5040820;28;1329;-68
2023/12/06 12:53:57;;;;;;;;;;;19.60;58.30;;;;;;5037179;28;1375;-70
2023/12/06 12:56:23;;;;;;;;;;;19.60;58.20;;;;;;5038277;28;1414;-69
2023/12/06 12:58:48;;;;;;;;;;;19.60;58.20;;;;;;5037780;28;1511;-70
2023/12/06 13:01:14;;;;;;;;;;;19.70;58.30;;;;;;5037921;28;1416;-70
2023/12/06 13:03:40;;;;;;;;;;;19.70;58.20;;;;;;5035874;28;2153;-70
2023/12/06 13:06:06;;;;;;;;;;;19.70;58.20;;;;;;5028849;28;1930;-70
2023/12/06 13:08:32;;;;;;;;;;;19.70;58.20;;;;;;5035225;28;1530;-69
2023/12/06 13:11:00;;;;;;;;;;;19.70;58.20;;;;;;5039069;28;1669;-69
2023/12/06 13:13:27;;;;;;;;;;;19.70;58.20;;;;;;5037933;28;1552;-69
2023/12/06 13:15:52;;;;;;;;;;;19.70;58.20;;;;;;5035055;28;1435;-70
2023/12/06 13:18:18;;;;;;;;;;;19.60;58.20;;;;;;5033715;28;1503;-68
2023/12/06 13:20:44;;;;;;;;;;;19.70;58.20;;;;;;5028664;28;1132;-69
2023/12/06 13:23:09;;;;;;;;;;;19.60;58.20;;;;;;5061541;28;1617;-69
2023/12/06 13:25:35;;;;;;;;;;;19.60;58.20;;;;;;5035430;28;1070;-70
2023/12/06 13:28:00;;;;;;;;;;;19.60;58.20;;;;;;5044782;28;1992;-69
2023/12/06 13:30:26;;;;;;;;;;;19.60;58.20;;;;;;5038662;28;1140;-69
2023/12/06 13:32:51;;;;;;;;;;;19.60;58.20;;;;;;5034858;28;1360;-69
2023/12/06 13:35:17;;;;;;;;;;;19.60;58.30;;;;;;5035619;28;1486;-69
2023/12/06 13:37:42;;;;;;;;;;;19.60;58.90;;;;;;5033745;28;1367;-69
2023/12/06 13:40:08;;;;;;;;;;;19.60;58.30;;;;;;5032979;28;1972;-69
2023/12/06 13:42:33;;;;;;;;;;;19.60;58.30;;;;;;5035350;28;1439;-68
2023/12/06 13:44:59;;;;;;;;;;;19.60;58.30;;;;;;5036129;28;1355;-68
2023/12/06 13:47:24;;;;;;;;;;;19.50;58.30;;;;;;5036119;28;1918;-68
2023/12/06 13:49:50;;;;;;;;;;;19.50;58.30;;;;;;5037185;28;1323;-68
2023/12/06 13:52:15;;;;;;;;;;;19.50;58.40;;;;;;5036937;28;1555;-69
2023/12/06 13:54:40;;;;;;;;;;;19.50;58.40;;;;;;5037067;28;1234;-70
2023/12/06 13:57:07;;;;;;;;;;;19.50;58.50;;;;;;5036275;28;1367;-70
2023/12/06 13:59:32;;;;;;;;;;;19.50;58.50;;;;;;5033361;28;1461;-70
2023/12/06 14:01:58;;;;;;;;;;;19.50;58.50;;;;;;5038217;28;1364;-70
2023/12/06 14:04:23;;;;;;;;;;;19.50;58.50;;;;;;5039920;28;1466;-70
2023/12/06 14:06:49;;;;;;;;;;;19.50;58.50;;;;;;5039233;28;1963;-70
2023/12/06 14:09:15;;;;;;;;;;;19.50;58.60;;;;;;5040465;28;1466;-69
2023/12/06 14:11:41;;;;;;;;;;;19.50;58.60;;;;;;5027674;28;4029;-69
2023/12/06 14:14:07;;;;;;;;;;;19.50;58.60;;;;;;5036882;28;1700;-69
2023/12/06 14:16:32;;;;;;;;;;;19.50;58.60;;;;;;5039404;28;1922;-69
2023/12/06 14:19:00;;;;;;;;;;;19.50;58.60;;;;;;5038549;28;1402;-69
2023/12/06 14:21:25;;;;;;;;;;;19.50;58.60;;;;;;5041025;28;1264;-69
2023/12/06 14:23:51;;;;;;;;;;;19.50;58.60;;;;;;5048121;28;1503;-70